Time;durP1;ratioP1;P1;durP2;ratioP2;P2;SDS_P1;SDS_P2;PMS_P1;PMS_P2;Temp;Humidity;BMP_temperature;BMP_pressure;BME280_temperature;BME280_humidity;BME280_pressure;Samples;Min_cycle;Max_cycle;Signal;HPM_P1;HPM_P2
2023/03/26 00:01:53;;;;;;;4.57;2.80;;;230.90;2252.80;;;;;;4958422;28;20089;-65
2023/03/26 00:04:20;;;;;;;5.60;3.20;;;230.80;2252.80;;;;;;4955215;28;20126;-65
2023/03/26 00:06:47;;;;;;;7.15;4.13;;;230.90;2252.80;;;;;;4962779;28;20118;-65
2023/03/26 00:09:15;;;;;;;15.57;9.60;;;230.90;2252.80;;;;;;4955995;28;20030;-65
2023/03/26 00:11:42;;;;;;;6.97;5.75;;;230.90;2252.80;;;;;;4938838;28;20450;-65
2023/03/26 00:14:12;;;;;;;22.98;13.07;;;230.90;2252.80;;;;;;4962355;28;20035;-63
2023/03/26 00:16:40;;;;;;;46.88;25.52;;;230.90;2252.80;;;;;;4961163;28;20067;-65
2023/03/26 00:19:08;;;;;;;20.95;14.13;;;230.90;2252.80;;;;;;4962277;28;20023;-64
2023/03/26 00:21:34;;;;;;;29.15;17.75;;;230.90;2252.80;;;;;;4963943;28;20046;-64
2023/03/26 00:24:05;;;;;;;28.08;16.67;;;230.90;2252.80;;;;;;4966903;28;20050;-65
2023/03/26 00:26:33;;;;;;;17.52;9.35;;;230.90;2252.80;;;;;;4962119;28;20117;-63
2023/03/26 00:28:59;;;;;;;10.55;4.88;;;230.80;2252.80;;;;;;4958647;28;20019;-64
2023/03/26 00:31:25;;;;;;;11.43;6.97;;;230.70;2252.80;;;;;;4962940;28;20035;-64
2023/03/26 00:33:55;;;;;;;11.27;6.28;;;230.60;2252.80;;;;;;4960639;28;20030;-64
2023/03/26 00:36:24;;;;;;;75.15;58.25;;;230.60;2252.80;;;;;;4957810;28;20371;-64
2023/03/26 00:38:51;;;;;;;19.00;14.70;;;230.60;2252.80;;;;;;4960335;28;20027;-67
2023/03/26 00:41:25;;;;;;;8.15;4.47;;;230.60;2252.80;;;;;;4961106;28;20035;-63
2023/03/26 00:43:58;;;;;;;7.32;4.75;;;230.40;2252.80;;;;;;4954534;28;20497;-62
2023/03/26 00:46:25;;;;;;;;;;;205.60;2252.80;;;;;;4956274;28;20512;-64
2023/03/26 00:48:51;;;;;;;6.70;4.60;;;205.60;2252.80;;;;;;4963962;28;19976;-65
2023/03/26 00:51:19;;;;;;;6.13;3.85;;;205.50;2252.80;;;;;;4960983;28;20058;-63
2023/03/26 00:53:47;;;;;;;7.65;4.15;;;205.60;2252.80;;;;;;4965807;28;20374;-65
2023/03/26 00:56:13;;;;;;;7.07;4.78;;;205.60;2252.80;;;;;;4972627;28;20031;-65
2023/03/26 00:58:40;;;;;;;20.20;11.50;;;205.70;2252.80;;;;;;4972734;28;20026;-65
2023/03/26 01:01:12;;;;;;;18.33;12.45;;;205.70;2252.80;;;;;;4972569;28;20031;-64
2023/03/26 01:03:38;;;;;;;15.93;9.82;;;205.70;2252.80;;;;;;4955415;28;20085;-64
2023/03/26 01:06:08;;;;;;;10.50;6.78;;;205.70;2252.80;;;;;;4954556;28;20725;-65
2023/03/26 01:08:41;;;;;;;11.73;7.80;;;205.70;2252.80;;;;;;4972485;28;20230;-63
2023/03/26 01:11:13;;;;;;;;;;;205.70;2252.80;;;;;;4972816;28;20031;-64
2023/03/26 01:13:47;;;;;;;9.88;7.28;;;205.70;2252.80;;;;;;4972123;28;20395;-64
2023/03/26 01:16:51;;;;;;;12.32;9.70;;;205.60;2252.80;;;;;;4972016;28;20059;-62
2023/03/26 01:19:44;;;;;;;20.52;13.25;;;205.60;2252.80;;;;;;4970146;28;20125;-65
2023/03/26 01:22:17;;;;;;;14.65;9.27;;;205.50;2252.80;;;;;;4972019;28;20073;-63
2023/03/26 01:24:47;;;;;;;9.48;5.93;;;205.50;2252.80;;;;;;4972253;28;20027;-62
2023/03/26 01:27:19;;;;;;;5.90;4.05;;;205.50;2252.80;;;;;;4971774;28;20529;-65
2023/03/26 01:29:54;;;;;;;7.93;5.05;;;205.50;2252.80;;;;;;4972050;28;20031;-66
2023/03/26 01:32:50;;;;;;;16.08;9.75;;;205.40;2252.80;;;;;;4971710;28;20367;-62
2023/03/26 01:35:25;;;;;;;7.75;4.43;;;205.40;2252.80;;;;;;4971984;28;20026;-63
2023/03/26 01:38:09;;;;;;;17.42;9.93;;;205.40;2252.80;;;;;;4971593;28;20066;-63
2023/03/26 01:40:42;;;;;;;15.07;9.43;;;205.40;2252.80;;;;;;4972371;28;20058;-63
2023/03/26 01:43:22;;;;;;;15.95;8.50;;;205.40;2252.80;;;;;;4971748;28;20062;-62
2023/03/26 01:45:49;;;;;;;13.63;7.72;;;205.40;2252.80;;;;;;4971633;28;20030;-62
2023/03/26 01:48:16;;;;;;;18.73;9.68;;;205.30;2252.80;;;;;;4971614;28;20041;-61
2023/03/26 01:50:41;;;;;;;15.95;10.93;;;205.30;2252.80;;;;;;4971122;28;20086;-63
2023/03/26 01:53:10;;;;;;;16.30;11.13;;;205.30;2252.80;;;;;;4971682;28;20382;-61
2023/03/26 01:55:54;;;;;;;22.85;20.08;;;205.20;2252.80;;;;;;4971136;28;20101;-61
2023/03/26 01:58:41;;;;;;;6.38;4.30;;;205.20;2252.80;;;;;;4971201;28;20039;-62
2023/03/26 02:01:28;;;;;;;7.00;3.85;;;205.10;2252.80;;;;;;4971664;28;20022;-62
2023/03/26 02:04:25;;;;;;;20.23;12.13;;;205.10;2252.80;;;;;;4971076;28;20074;-64
2023/03/26 02:07:05;;;;;;;28.58;15.80;;;205.20;2252.80;;;;;;4970718;28;20158;-63
2023/03/26 02:09:54;;;;;;;25.27;12.98;;;205.10;2252.80;;;;;;4971158;28;20027;-61
2023/03/26 02:12:22;;;;;;;13.35;7.90;;;205.10;2252.80;;;;;;4960303;28;20039;-62
2023/03/26 02:14:48;;;;;;;11.55;6.80;;;205.10;2252.80;;;;;;4971086;28;20023;-62
2023/03/26 02:17:14;;;;;;;7.47;5.03;;;205.10;2252.80;;;;;;4970931;28;20089;-63
2023/03/26 02:19:41;;;;;;;11.00;3.75;;;205.00;2252.80;;;;;;4971182;28;20019;-61
2023/03/26 02:22:14;;;;;;;14.45;5.53;;;205.00;2252.80;;;;;;4970585;28;20138;-62
2023/03/26 02:24:43;;;;;;;8.60;6.05;;;204.90;2252.80;;;;;;4970811;28;20033;-62
2023/03/26 02:27:11;;;;;;;14.25;8.07;;;204.90;2252.80;;;;;;4970532;28;20464;-61
2023/03/26 02:29:38;;;;;;;10.30;8.02;;;204.80;2252.80;;;;;;4970804;28;20106;-61
2023/03/26 02:32:06;;;;;;;14.93;8.70;;;204.90;2252.80;;;;;;4970750;28;20034;-61
2023/03/26 02:34:32;;;;;;;8.43;5.38;;;205.00;2252.80;;;;;;4970785;28;20109;-61
2023/03/26 02:36:58;;;;;;;11.43;7.00;;;205.00;2252.80;;;;;;4968614;28;20489;-60
2023/03/26 02:39:25;;;;;;;11.50;7.88;;;205.00;2252.80;;;;;;4970892;28;20038;-61
2023/03/26 02:41:51;;;;;;;8.05;4.78;;;205.00;2252.80;;;;;;4970735;28;20030;-61
2023/03/26 02:44:16;;;;;;;4.53;2.92;;;204.90;2252.80;;;;;;4970692;28;20019;-62
2023/03/26 02:46:42;;;;;;;3.45;1.98;;;204.90;2252.80;;;;;;4974187;28;20513;-61
2023/03/26 02:49:08;;;;;;;6.15;3.90;;;204.80;2252.80;;;;;;4979501;28;20085;-61
2023/03/26 02:51:34;;;;;;;10.52;5.35;;;204.80;2252.80;;;;;;4970506;28;20653;-61
2023/03/26 02:54:00;;;;;;;13.95;8.88;;;180.10;2252.80;;;;;;4970545;28;20046;-61
2023/03/26 02:56:27;;;;;;;17.15;10.60;;;180.10;2252.80;;;;;;4970021;28;20031;-61
2023/03/26 02:58:52;;;;;;;16.70;10.35;;;179.70;2252.80;;;;;;4970291;28;20023;-61
2023/03/26 03:01:18;;;;;;;12.05;7.40;;;179.30;2252.80;;;;;;4969932;28;20500;-61
2023/03/26 03:03:47;;;;;;;8.38;5.70;;;154.40;2252.80;;;;;;4970518;28;20086;-60
2023/03/26 03:06:16;;;;;;;5.40;3.40;;;179.20;1996.80;;;;;;4970454;28;20090;-61
2023/03/26 03:08:41;;;;;;;6.65;3.30;;;179.30;2252.80;;;;;;4970685;28;20085;-61
2023/03/26 03:11:11;;;;;;;5.90;3.40;;;179.50;2252.80;;;;;;4970342;28;20015;-61
2023/03/26 03:13:36;;;;;;;7.13;4.53;;;179.50;2252.80;;;;;;4970228;28;20029;-61
2023/03/26 03:16:02;;;;;;;9.50;4.13;;;179.60;2252.80;;;;;;4970120;28;20030;-61
2023/03/26 03:18:28;;;;;;;4.18;2.22;;;179.60;2252.80;;;;;;4968623;28;20031;-60
2023/03/26 03:20:54;;;;;;;3.80;2.55;;;179.50;2252.80;;;;;;4970171;28;20038;-60
2023/03/26 03:23:20;;;;;;;2.92;1.90;;;179.50;2252.80;;;;;;4972238;28;20519;-61
2023/03/26 03:25:46;;;;;;;3.90;2.20;;;179.50;2252.80;;;;;;4974163;28;20051;-62
2023/03/26 03:28:12;;;;;;;4.32;2.38;;;179.40;2252.80;;;;;;4974460;28;20493;-61
2023/03/26 03:30:38;;;;;;;8.77;5.45;;;179.40;2252.80;;;;;;4973819;28;20042;-60
2023/03/26 03:33:05;;;;;;;17.13;8.48;;;179.30;2252.80;;;;;;4973947;28;20023;-61
2023/03/26 03:35:32;;;;;;;8.70;4.43;;;179.40;2252.80;;;;;;4973923;28;20520;-61
2023/03/26 03:37:59;;;;;;;6.15;4.25;;;179.40;2252.80;;;;;;4973761;28;20039;-61
2023/03/26 03:40:25;;;;;;;7.00;4.28;;;179.30;2252.80;;;;;;4973997;28;20023;-61
2023/03/26 03:42:51;;;;;;;6.65;3.70;;;179.20;2252.80;;;;;;4974069;28;20038;-61
2023/03/26 03:45:17;;;;;;;6.60;2.85;;;179.30;2252.80;;;;;;4973220;28;20486;-62
2023/03/26 03:47:43;;;;;;;5.15;2.83;;;179.40;2252.80;;;;;;4974600;28;20062;-62
2023/03/26 03:50:09;;;;;;;5.70;2.70;;;179.40;2252.80;;;;;;4973480;28;20385;-61
2023/03/26 03:52:35;;;;;;;5.43;3.15;;;179.40;2252.80;;;;;;4973797;28;20058;-62
2023/03/26 03:55:00;;;;;;;5.65;3.25;;;179.40;2252.80;;;;;;4973724;28;20544;-62
2023/03/26 03:57:27;;;;;;;4.18;2.47;;;179.40;2252.80;;;;;;4973369;28;20034;-62
2023/03/26 03:59:56;;;;;;;6.03;4.85;;;179.40;2252.80;;;;;;4978468;28;20049;-61
2023/03/26 04:02:29;;;;;;;12.32;11.18;;;179.40;2252.80;;;;;;4981000;28;20039;-62
2023/03/26 04:04:57;;;;;;;7.07;4.93;;;179.20;2252.80;;;;;;4973381;28;20023;-62
2023/03/26 04:07:25;;;;;;;9.35;4.40;;;154.30;2252.80;;;;;;4973271;28;20062;-62
2023/03/26 04:09:50;;;;;;;7.90;4.70;;;154.30;2252.80;;;;;;4960755;28;20023;-63
2023/03/26 04:12:17;;;;;;;5.65;3.17;;;154.20;2252.80;;;;;;4973274;28;20041;-61
2023/03/26 04:14:42;;;;;;;6.10;3.33;;;154.20;2252.80;;;;;;4961100;28;20034;-61
2023/03/26 04:17:09;;;;;;;3.25;2.20;;;154.10;2252.80;;;;;;4972857;28;20039;-62
2023/03/26 04:19:35;;;;;;;7.85;3.13;;;154.10;2252.80;;;;;;4973693;28;20031;-62
2023/03/26 04:22:03;;;;;;;10.63;5.53;;;154.30;2252.80;;;;;;4972718;28;20133;-62
2023/03/26 04:24:32;;;;;;;7.18;4.95;;;154.40;2252.80;;;;;;4973354;28;20027;-61
2023/03/26 04:27:02;;;;;;;9.77;5.13;;;154.50;2252.80;;;;;;4973396;28;20031;-62
2023/03/26 04:29:31;;;;;;;11.05;5.43;;;179.20;2252.80;;;;;;4973031;28;20485;-61
2023/03/26 04:31:57;;;;;;;10.25;6.57;;;179.20;2252.80;;;;;;4973109;28;20038;-62
2023/03/26 04:34:24;;;;;;;8.05;5.40;;;154.40;2252.80;;;;;;4972625;28;20026;-62
2023/03/26 04:36:53;;;;;;;9.35;5.43;;;154.50;2252.80;;;;;;4972713;28;20044;-62
2023/03/26 04:39:28;;;;;;;7.07;4.70;;;154.50;2252.80;;;;;;4972869;28;20099;-62
2023/03/26 04:41:56;;;;;;;7.72;5.18;;;154.50;2252.80;;;;;;4977599;28;20416;-61
2023/03/26 04:44:23;;;;;;;10.88;5.68;;;179.20;2252.80;;;;;;4980926;28;20544;-62
2023/03/26 04:46:51;;;;;;;7.50;4.72;;;179.30;2252.80;;;;;;4972600;28;20056;-62
2023/03/26 04:49:17;;;;;;;9.23;4.70;;;179.30;2252.80;;;;;;4972722;28;20058;-62
2023/03/26 04:51:45;;;;;;;8.07;4.88;;;179.30;2252.80;;;;;;4972567;28;20493;-62
2023/03/26 04:54:13;;;;;;;5.35;2.67;;;179.30;2252.80;;;;;;4972871;28;20098;-62
2023/03/26 04:56:42;;;;;;;5.57;3.20;;;179.40;2252.80;;;;;;4972887;28;20487;-62
2023/03/26 04:59:13;;;;;;;4.55;2.60;;;179.30;2252.80;;;;;;4972377;28;20023;-62
2023/03/26 05:01:40;;;;;;;5.90;3.50;;;179.20;2252.80;;;;;;4972278;28;20054;-63
2023/03/26 05:04:07;;;;;;;4.38;2.40;;;179.40;2252.80;;;;;;4972259;28;20031;-62
2023/03/26 05:06:33;;;;;;;8.70;8.02;;;179.50;2252.80;;;;;;4972303;28;20517;-62
2023/03/26 05:09:00;;;;;;;7.80;5.57;;;179.60;2252.80;;;;;;4972480;28;20062;-62
2023/03/26 05:11:27;;;;;;;4.63;2.50;;;179.20;2252.80;;;;;;4972048;28;20027;-61
2023/03/26 05:13:52;;;;;;;3.65;1.88;;;179.20;2252.80;;;;;;4972419;28;20077;-61
2023/03/26 05:16:18;;;;;;;4.60;2.60;;;179.30;2252.80;;;;;;4972335;28;20433;-61
2023/03/26 05:18:45;;;;;;;4.25;1.88;;;179.30;2252.80;;;;;;4972258;28;20585;-61
2023/03/26 05:21:11;;;;;;;2.78;1.83;;;179.20;2252.80;;;;;;4972107;28;20035;-60
2023/03/26 05:23:37;;;;;;;3.78;1.90;;;179.30;2252.80;;;;;;4971857;28;20034;-61
2023/03/26 05:26:02;;;;;;;4.55;2.75;;;179.40;2252.80;;;;;;4972232;28;20034;-62
2023/03/26 05:28:28;;;;;;;13.20;8.93;;;179.80;2252.80;;;;;;4971659;28;20034;-61
2023/03/26 05:30:54;;;;;;;10.63;7.32;;;179.80;2252.80;;;;;;4971960;28;20019;-61
2023/03/26 05:33:22;;;;;;;8.82;6.03;;;179.90;2252.80;;;;;;4971833;28;20030;-61
2023/03/26 05:36:08;;;;;;;13.20;10.90;;;180.10;2252.80;;;;;;4971595;28;20030;-60
2023/03/26 05:38:34;;;;;;;11.18;8.88;;;180.10;2252.80;;;;;;4971897;28;20034;-61
2023/03/26 05:41:05;;;;;;;9.57;6.72;;;180.00;2252.80;;;;;;4971819;28;20524;-62
2023/03/26 05:43:31;;;;;;;9.73;6.53;;;204.80;2252.80;;;;;;4971321;28;20373;-61
2023/03/26 05:45:57;;;;;;;8.95;5.40;;;205.10;2252.80;;;;;;4970985;28;20411;-62
2023/03/26 05:48:24;;;;;;;8.15;4.95;;;230.40;2252.80;;;;;;4971673;28;20026;-61
2023/03/26 05:50:52;;;;;;;7.47;5.35;;;230.80;2252.80;;;;;;4971559;28;20035;-62
2023/03/26 05:53:19;;;;;;;7.18;4.80;;;231.30;2252.80;;;;;;4971227;28;20030;-62
2023/03/26 05:55:56;;;;;;;5.82;3.35;;;256.90;2252.80;;;;;;4971848;28;20115;-61
2023/03/26 05:58:26;;;;;;;20.65;18.98;;;307.20;2304.00;;;;;;4971575;28;20446;-62
2023/03/26 06:01:07;;;;;;;11.25;7.82;;;282.40;2278.40;;;;;;4971376;28;20023;-61
2023/03/26 06:03:38;;;;;;;10.40;7.55;;;307.40;2304.00;;;;;;4971564;28;20022;-61
2023/03/26 06:06:09;;;;;;;12.27;7.10;;;333.40;2329.60;;;;;;4971542;28;20031;-63
2023/03/26 06:08:35;;;;;;;8.63;6.28;;;384.40;2329.60;;;;;;4971098;28;20556;-61
2023/03/26 06:11:06;;;;;;;8.25;4.45;;;435.50;2150.40;;;;;;4968210;28;20039;-62
2023/03/26 06:13:32;;;;;;;4.70;3.63;;;460.90;1971.20;;;;;;4971473;28;20074;-62
2023/03/26 06:15:58;;;;;;;5.50;3.92;;;461.20;1920.00;;;;;;4970252;28;20425;-62
2023/03/26 06:18:25;;;;;;;7.03;4.72;;;486.90;1868.80;;;;;;4970961;28;20037;-64
2023/03/26 06:20:51;;;;;;;6.07;4.85;;;538.20;1689.60;;;;;;4971017;28;20038;-63
2023/03/26 06:23:18;;;;;;;13.50;9.15;;;564.00;1638.40;;;;;;4970462;28;20453;-64
2023/03/26 06:25:47;;;;;;;6.30;5.70;;;614.70;1536.00;;;;;;4971382;28;20030;-62
2023/03/26 06:28:13;;;;;;;6.88;5.43;;;614.90;1484.80;;;;;;4970884;28;20023;-63
2023/03/26 06:30:39;;;;;;;6.43;5.55;;;589.10;1561.60;;;;;;4971012;28;20390;-61
2023/03/26 06:33:05;;;;;;;6.55;5.90;;;564.10;1587.20;;;;;;4970996;28;20026;-61
2023/03/26 06:35:31;;;;;;;8.02;7.10;;;563.70;1612.80;;;;;;4970899;28;20038;-64
2023/03/26 06:37:57;;;;;;;10.23;7.00;;;563.50;1638.40;;;;;;4970239;28;20038;-65
2023/03/26 06:40:23;;;;;;;9.45;6.82;;;563.80;1638.40;;;;;;4970827;28;20039;-64
2023/03/26 06:42:49;;;;;;;11.07;8.00;;;564.00;1612.80;;;;;;4970458;28;20077;-63
2023/03/26 06:45:15;;;;;;;10.90;8.85;;;589.40;1587.20;;;;;;4970898;28;20027;-63
2023/03/26 06:47:40;;;;;;;11.30;10.23;;;614.60;1536.00;;;;;;4970736;28;20495;-63
2023/03/26 06:50:07;;;;;;;11.73;8.02;;;614.90;1536.00;;;;;;4970581;28;20026;-64
2023/03/26 06:52:33;;;;;;;12.57;11.25;;;614.90;1536.00;;;;;;4970403;28;20035;-66
2023/03/26 06:54:58;;;;;;;11.52;10.43;;;665.60;1484.80;;;;;;4970076;28;20532;-65
2023/03/26 06:57:24;;;;;;;11.70;9.13;;;691.20;1433.60;;;;;;4969804;28;20101;-65
2023/03/26 06:59:50;;;;;;;10.93;9.18;;;691.20;1408.00;;;;;;4970170;28;20114;-66
2023/03/26 07:02:15;;;;;;;7.55;6.50;;;640.40;1459.20;;;;;;4970494;28;20026;-65
2023/03/26 07:04:41;;;;;;;6.68;5.95;;;589.10;1587.20;;;;;;4970516;28;20426;-64
2023/03/26 07:07:07;;;;;;;8.45;5.60;;;563.80;1638.40;;;;;;4970230;28;20030;-62
2023/03/26 07:09:32;;;;;;;13.57;11.18;;;563.70;1638.40;;;;;;4970442;28;20102;-63
2023/03/26 07:11:58;;;;;;;19.98;14.02;;;538.40;1689.60;;;;;;4969991;28;20023;-64
2023/03/26 07:14:26;;;;;;;18.77;11.18;;;538.40;1715.20;;;;;;4970377;28;20027;-64
2023/03/26 07:16:52;;;;;;;14.55;11.02;;;538.00;1715.20;;;;;;4970357;28;20039;-64
2023/03/26 07:19:18;;;;;;;16.73;12.27;;;563.20;1715.20;;;;;;4970110;28;20086;-64
2023/03/26 07:21:45;;;;;;;22.92;15.43;;;563.20;1715.20;;;;;;4970042;28;20078;-63
2023/03/26 07:24:12;;;;;;;17.05;14.35;;;564.00;1664.00;;;;;;4952547;28;20402;-63
2023/03/26 07:26:50;;;;;;;16.15;14.43;;;589.70;1612.80;;;;;;4969836;28;20116;-64
2023/03/26 07:30:06;;;;;;;25.17;18.90;;;614.80;1587.20;;;;;;4970586;28;20079;-63
2023/03/26 07:32:44;;;;;;;34.50;27.83;;;614.80;1561.60;;;;;;4910581;29;20040;-61
2023/03/26 07:35:46;;;;;;;25.30;22.67;;;614.60;1587.20;;;;;;4910366;29;20076;-61
2023/03/26 07:38:41;;;;;;;25.75;19.52;;;640.40;1484.80;;;;;;4910808;29;20040;-63
2023/03/26 07:41:07;;;;;;;27.63;19.60;;;614.80;1536.00;;;;;;4909273;29;20111;-64
2023/03/26 07:43:49;;;;;;;24.85;20.83;;;614.70;1536.00;;;;;;4909814;29;20172;-64
2023/03/26 07:46:16;;;;;;;22.35;19.95;;;614.80;1536.00;;;;;;4909800;29;20115;-64
2023/03/26 07:48:46;;;;;;;22.65;20.10;;;615.30;1536.00;;;;;;4909926;29;20041;-63
2023/03/26 07:51:13;;;;;;;21.75;16.40;;;640.60;1459.20;;;;;;4909760;29;20024;-63
2023/03/26 07:53:39;;;;;;;16.65;13.70;;;665.60;1433.60;;;;;;4909522;29;20118;-66
2023/03/26 07:56:19;;;;;;;16.45;14.57;;;666.20;1408.00;;;;;;4910403;29;20172;-61
2023/03/26 07:59:02;;;;;;;15.95;12.23;;;691.80;1356.80;;;;;;4910601;29;20024;-64
2023/03/26 08:01:27;;;;;;;;;;;717.20;1305.60;;;;;;4910383;29;20032;-62
2023/03/26 08:03:59;;;;;;;12.93;11.10;;;717.50;1305.60;;;;;;4910542;29;19958;-61
2023/03/26 08:06:36;;;;;;;8.93;8.02;;;742.50;1305.60;;;;;;4910388;29;20498;-62
2023/03/26 08:09:19;;;;;;;12.80;8.80;;;742.90;1228.80;;;;;;4956261;28;20047;-61
2023/03/26 08:12:05;;;;;;;7.15;6.45;;;743.00;1203.20;;;;;;4973312;28;20114;-62
2023/03/26 08:14:41;;;;;;;9.07;8.23;;;743.30;1152.00;;;;;;4971367;28;20035;-62
2023/03/26 08:17:25;;;;;;;10.18;8.48;;;768.90;1152.00;;;;;;4973189;28;20030;-65
2023/03/26 08:20:00;;;;;;;9.85;8.85;;;793.60;1177.60;;;;;;4973488;28;20042;-62
2023/03/26 08:22:39;;;;;;;8.38;6.53;;;768.70;1152.00;;;;;;4972571;28;20389;-65
2023/03/26 08:25:32;;;;;;;11.93;7.03;;;717.70;1152.00;;;;;;4963279;28;20042;-63
2023/03/26 08:28:49;;;;;;;10.23;9.13;;;717.30;1228.80;;;;;;4964663;28;20019;-64
2023/03/26 08:31:16;;;;;;;20.23;10.70;;;691.20;1254.40;;;;;;4923286;28;20301;-66
2023/03/26 08:33:42;;;;;;;24.48;22.25;;;692.10;1228.80;;;;;;4956107;28;20497;-68
2023/03/26 08:36:08;;;;;;;13.80;6.93;;;716.90;1254.40;;;;;;4964975;28;20038;-63
2023/03/26 08:38:34;;;;;;;6.95;6.18;;;691.60;1254.40;;;;;;4955718;28;20474;-66
2023/03/26 08:41:09;;;;;;;10.43;7.90;;;691.70;1254.40;;;;;;4954856;28;20140;-63
2023/03/26 08:44:14;;;;;;;8.45;5.80;;;691.80;1254.40;;;;;;4961169;28;20038;-68
2023/03/26 08:46:48;;;;;;;9.02;5.30;;;691.40;1203.20;;;;;;4960660;28;20122;-66
2023/03/26 08:49:41;;;;;;;8.88;4.15;;;666.10;1254.40;;;;;;4960796;28;20565;-65
2023/03/26 08:52:40;;;;;;;6.40;3.80;;;691.50;1228.80;;;;;;4962490;28;20053;-65
2023/03/26 08:55:41;;;;;;;7.22;3.88;;;666.30;1203.20;;;;;;4954380;28;20086;-65
2023/03/26 08:58:45;;;;;;;9.82;6.63;;;691.90;1177.60;;;;;;4962646;28;20118;-64
2023/03/26 09:01:37;;;;;;;7.32;4.22;;;666.20;1228.80;;;;;;4962976;28;20042;-65
2023/03/26 09:04:27;;;;;;;6.05;5.18;;;691.30;1228.80;;;;;;4961639;28;20398;-63
2023/03/26 09:07:17;;;;;;;10.23;6.90;;;665.90;1280.00;;;;;;4960172;28;20035;-63
2023/03/26 09:10:34;;;;;;;4.63;3.55;;;640.20;1305.60;;;;;;4960342;28;20025;-63
2023/03/26 09:13:26;;;;;;;8.18;5.53;;;614.50;1305.60;;;;;;4930914;28;20038;-63
2023/03/26 09:15:57;;;;;;;3.97;2.90;;;589.50;1356.80;;;;;;4902655;29;20032;-62
2023/03/26 09:19:04;;;;;;;4.07;2.85;;;589.70;1331.20;;;;;;4878533;29;20084;-66
2023/03/26 09:21:47;;;;;;;3.97;2.67;;;589.20;1382.40;;;;;;4878262;29;20546;-63
2023/03/26 09:24:32;;;;;;;8.23;6.22;;;589.30;1356.80;;;;;;4920900;29;20082;-63
2023/03/26 09:27:03;;;;;;;5.72;4.25;;;589.40;1433.60;;;;;;4914182;29;20118;-63
2023/03/26 09:29:47;;;;;;;9.20;7.68;;;563.60;1408.00;;;;;;4922816;29;20067;-64
2023/03/26 09:32:15;;;;;;;8.93;5.97;;;563.70;1433.60;;;;;;4915461;29;20063;-66
2023/03/26 09:34:56;;;;;;;9.50;5.78;;;564.00;1408.00;;;;;;4926979;29;20040;-64
2023/03/26 09:37:38;;;;;;;15.57;8.48;;;588.80;1408.00;;;;;;4919785;29;20075;-63
2023/03/26 09:40:19;;;;;;;7.85;5.47;;;588.80;1408.00;;;;;;4925024;29;20070;-64
2023/03/26 09:42:53;;;;;;;6.13;3.92;;;563.50;1408.00;;;;;;4931200;29;20034;-65
2023/03/26 09:45:43;;;;;;;4.75;3.20;;;563.40;1382.40;;;;;;4930861;29;20038;-63
2023/03/26 09:48:25;;;;;;;4.45;2.72;;;538.40;1382.40;;;;;;4931139;29;20046;-61
2023/03/26 09:50:57;;;;;;;14.90;7.97;;;538.30;1408.00;;;;;;4931059;29;20028;-66
2023/03/26 09:53:44;;;;;;;4.50;2.83;;;563.30;1408.00;;;;;;4945464;29;20035;-63
2023/03/26 09:56:09;;;;;;;7.95;4.28;;;538.40;1382.40;;;;;;4951833;29;20513;-62
2023/03/26 09:59:19;;;;;;;6.95;4.22;;;563.40;1408.00;;;;;;4952516;29;20100;-63
2023/03/26 10:02:03;;;;;;;8.07;4.93;;;538.30;1408.00;;;;;;4936252;28;20074;-64
2023/03/26 10:04:34;;;;;;;7.20;4.45;;;538.10;1433.60;;;;;;4937477;29;20411;-63
2023/03/26 10:07:25;;;;;;;8.88;5.43;;;537.70;1484.80;;;;;;4938371;28;20555;-64
2023/03/26 10:10:06;;;;;;;9.27;6.55;;;512.90;1459.20;;;;;;4943085;28;20098;-62
2023/03/26 10:12:38;;;;;;;5.22;3.67;;;512.10;1510.40;;;;;;4951651;28;20043;-63
2023/03/26 10:15:26;;;;;;;5.43;3.78;;;512.40;1536.00;;;;;;4950069;28;20031;-63
2023/03/26 10:18:25;;;;;;;7.97;5.70;;;512.50;1536.00;;;;;;4954811;28;20029;-63
2023/03/26 10:21:07;;;;;;;7.20;5.65;;;512.60;1536.00;;;;;;4952218;28;20027;-64
2023/03/26 10:23:45;;;;;;;6.10;3.35;;;486.80;1561.60;;;;;;4952145;28;20047;-63
2023/03/26 10:26:35;;;;;;;9.93;8.30;;;487.00;1561.60;;;;;;4962975;28;20038;-64
2023/03/26 10:29:19;;;;;;;10.35;7.15;;;461.50;1587.20;;;;;;4957872;28;20023;-63
2023/03/26 10:32:15;;;;;;;6.68;4.75;;;486.40;1587.20;;;;;;4951055;28;20086;-64
2023/03/26 10:35:05;;;;;;;6.53;2.45;;;486.50;1612.80;;;;;;4955478;28;20027;-62
2023/03/26 10:37:56;;;;;;;8.48;4.55;;;486.40;1587.20;;;;;;4955924;28;20035;-64
2023/03/26 10:40:29;;;;;;;5.40;3.28;;;486.40;1587.20;;;;;;4961716;28;20069;-65
2023/03/26 10:43:23;;;;;;;6.10;4.55;;;461.70;1612.80;;;;;;4960289;28;20042;-64
2023/03/26 10:46:26;;;;;;;8.57;4.80;;;486.40;1612.80;;;;;;4957746;28;20043;-66
2023/03/26 10:49:20;;;;;;;5.55;2.55;;;461.50;1638.40;;;;;;4955357;28;20047;-63
2023/03/26 10:51:50;;;;;;;;;;;486.50;1612.80;;;;;;4959665;28;20023;-65
2023/03/26 10:54:32;;;;;;;6.22;3.08;;;486.60;1612.80;;;;;;4954618;28;20276;-64
2023/03/26 10:57:01;;;;;;;4.28;2.33;;;486.60;1612.80;;;;;;4960273;28;20035;-64
2023/03/26 10:59:27;;;;;;;5.40;3.58;;;486.50;1612.80;;;;;;4960357;28;20482;-65
2023/03/26 11:02:17;;;;;;;5.03;3.38;;;486.60;1638.40;;;;;;4956044;28;20047;-63
2023/03/26 11:05:20;;;;;;;2.38;1.50;;;461.70;1638.40;;;;;;4959564;28;20057;-67
2023/03/26 11:07:55;;;;;;;5.55;3.85;;;486.40;1638.40;;;;;;4951911;28;20102;-63
2023/03/26 11:10:45;;;;;;;7.55;4.22;;;486.70;1664.00;;;;;;4954830;28;20090;-64
2023/03/26 11:13:18;;;;;;;10.45;6.93;;;486.70;1638.40;;;;;;4960141;28;20106;-66
2023/03/26 11:16:05;;;;;;;5.15;3.65;;;486.60;1664.00;;;;;;4954072;28;20041;-67
2023/03/26 11:19:03;;;;;;;4.60;3.10;;;486.70;1664.00;;;;;;4956202;28;20046;-67
2023/03/26 11:22:12;;;;;;;4.63;2.88;;;486.80;1638.40;;;;;;4955917;28;20054;-63
2023/03/26 11:24:47;;;;;;;5.72;2.95;;;486.60;1638.40;;;;;;4941965;28;20055;-64
2023/03/26 11:27:22;;;;;;;7.63;3.25;;;486.40;1664.00;;;;;;4960031;28;20457;-63
2023/03/26 11:30:03;;;;;;;4.78;3.03;;;486.50;1638.40;;;;;;4951596;28;20027;-64
2023/03/26 11:32:59;;;;;;;6.28;3.83;;;486.70;1638.40;;;;;;4959115;28;20489;-65
2023/03/26 11:35:35;;;;;;;5.57;2.88;;;486.80;1612.80;;;;;;4952627;28;20036;-68
2023/03/26 11:38:10;;;;;;;3.88;2.47;;;486.70;1612.80;;;;;;4957121;28;20046;-67
2023/03/26 11:40:40;;;;;;;6.65;3.85;;;486.60;1612.80;;;;;;4955393;28;20037;-66
2023/03/26 11:43:10;;;;;;;8.82;4.65;;;486.80;1612.80;;;;;;4961087;28;20026;-65
2023/03/26 11:45:40;;;;;;;8.95;3.03;;;486.70;1638.40;;;;;;4956712;28;20027;-63
2023/03/26 11:48:30;;;;;;;5.97;3.78;;;486.70;1638.40;;;;;;4960689;28;20378;-64
2023/03/26 11:51:07;;;;;;;5.13;2.55;;;486.70;1612.80;;;;;;4955121;28;20059;-63
2023/03/26 11:53:37;;;;;;;5.45;2.85;;;486.60;1587.20;;;;;;4968474;28;20034;-68
2023/03/26 11:56:32;;;;;;;5.00;2.63;;;486.70;1612.80;;;;;;4965108;28;20126;-65
2023/03/26 11:59:29;;;;;;;5.50;3.25;;;486.70;1587.20;;;;;;4965268;28;20038;-66
2023/03/26 12:01:57;;;;;;;5.65;4.43;;;487.00;1612.80;;;;;;4907688;29;20071;-64
2023/03/26 12:04:33;;;;;;;3.88;2.08;;;486.90;1587.20;;;;;;4903752;29;20024;-68
2023/03/26 12:07:21;;;;;;;6.07;2.90;;;486.90;1587.20;;;;;;4904617;29;20044;-64
2023/03/26 12:09:52;;;;;;;3.83;2.53;;;486.90;1587.20;;;;;;4900356;29;20091;-66
2023/03/26 12:12:19;;;;;;;8.55;3.67;;;487.00;1561.60;;;;;;4899938;29;20298;-63
2023/03/26 12:14:47;;;;;;;5.65;4.22;;;487.10;1561.60;;;;;;4905890;29;20119;-67
2023/03/26 12:17:24;;;;;;;6.97;4.75;;;487.10;1561.60;;;;;;4905653;29;20039;-67
2023/03/26 12:19:50;;;;;;;4.85;3.20;;;487.30;1638.40;;;;;;4901550;29;20045;-65
2023/03/26 12:22:30;;;;;;;6.18;3.28;;;487.00;1536.00;;;;;;4901614;29;20527;-65
2023/03/26 12:25:26;;;;;;;3.45;2.10;;;487.20;1561.60;;;;;;4905695;29;20092;-65
2023/03/26 12:28:03;;;;;;;5.75;3.78;;;486.80;1536.00;;;;;;4891442;29;20064;-64
2023/03/26 12:30:32;;;;;;;6.40;4.28;;;487.00;1561.60;;;;;;4907031;29;20088;-67
2023/03/26 12:33:02;;;;;;;4.25;2.85;;;487.30;1612.80;;;;;;4901514;29;20116;-68
2023/03/26 12:35:30;;;;;;;3.88;2.60;;;487.30;1561.60;;;;;;4904121;29;20033;-63
2023/03/26 12:38:20;;;;;;;6.35;3.97;;;487.20;1510.40;;;;;;4922386;28;20631;-63
2023/03/26 12:40:47;;;;;;;5.18;2.53;;;487.20;1536.00;;;;;;4959692;28;20479;-64
2023/03/26 12:43:29;;;;;;;4.63;3.03;;;487.20;1484.80;;;;;;4962253;28;20110;-66
2023/03/26 12:45:57;;;;;;;3.67;2.35;;;487.30;1459.20;;;;;;4956531;28;20050;-64
2023/03/26 12:48:24;;;;;;;6.68;4.03;;;487.30;1510.40;;;;;;4956237;28;20034;-64